createdAt,value
2022-11-28T00:01:48.275Z,9.23
2022-11-28T00:04:15.654Z,11.30
2022-11-28T00:06:45.720Z,10.87
2022-11-28T00:09:14.232Z,9.90
2022-11-28T00:11:43.148Z,11.57
2022-11-28T00:14:11.342Z,11.50
2022-11-28T00:16:38.771Z,12.37
2022-11-28T00:19:06.739Z,11.17
2022-11-28T00:21:34.032Z,11.23
2022-11-28T00:24:03.182Z,14.13
2022-11-28T00:26:36.151Z,11.07
2022-11-28T00:29:04.934Z,12.20
2022-11-28T00:31:35.671Z,14.90
2022-11-28T00:34:02.937Z,12.27
2022-11-28T00:36:31.196Z,13.07
2022-11-28T00:38:58.282Z,13.97
2022-11-28T00:41:28.825Z,16.73
2022-11-28T00:43:57.279Z,13.03
2022-11-28T00:46:24.579Z,14.20
2022-11-28T00:48:52.347Z,14.37
2022-11-28T00:51:22.079Z,13.97
2022-11-28T00:53:50.562Z,12.00
2022-11-28T00:56:20.979Z,11.43
2022-11-28T00:58:51.241Z,11.77
2022-11-28T01:01:21.584Z,14.57
2022-11-28T01:03:49.986Z,11.50
2022-11-28T01:06:27.787Z,12.10
2022-11-28T01:08:55.809Z,11.80
2022-11-28T01:11:23.048Z,11.00
2022-11-28T01:13:50.462Z,12.07
2022-11-28T01:16:17.648Z,11.83
2022-11-28T01:18:44.510Z,10.97
2022-11-28T01:21:11.618Z,10.07
2022-11-28T01:23:38.530Z,11.63
2022-11-28T01:26:07.686Z,10.80
2022-11-28T01:28:35.619Z,9.70
2022-11-28T01:31:07.451Z,11.60
2022-11-28T01:33:34.483Z,12.27
2022-11-28T01:36:01.952Z,12.97
2022-11-28T01:38:29.319Z,11.80
2022-11-28T01:40:56.697Z,10.70
2022-11-28T01:43:24.588Z,10.87
2022-11-28T01:45:52.026Z,11.67
2022-11-28T01:48:24.787Z,9.93
2022-11-28T01:50:55.901Z,8.87
2022-11-28T01:53:23.495Z,10.67
2022-11-28T01:56:07.487Z,10.33
2022-11-28T01:58:37.981Z,9.87
2022-11-28T02:01:05.143Z,9.30
2022-11-28T02:03:45.925Z,12.03
2022-11-28T02:06:16.074Z,10.43
2022-11-28T02:08:43.257Z,10.13
2022-11-28T02:11:16.070Z,9.07
2022-11-28T02:14:32.841Z,11.50
2022-11-28T02:17:24.304Z,10.13
2022-11-28T02:20:15.656Z,8.10
2022-11-28T02:23:07.601Z,8.40
2022-11-28T02:26:05.687Z,9.73
2022-11-28T02:29:11.663Z,9.07
2022-11-28T02:32:05.750Z,10.80
2022-11-28T02:34:47.119Z,8.90
2022-11-28T02:37:25.791Z,9.90
2022-11-28T02:40:13.728Z,12.07
2022-11-28T02:43:10.555Z,9.80
2022-11-28T02:45:50.121Z,10.77
2022-11-28T02:48:44.093Z,10.27
2022-11-28T02:51:18.254Z,9.03
2022-11-28T02:53:46.613Z,9.67
2022-11-28T02:56:13.677Z,8.93
2022-11-28T02:58:40.509Z,10.83
2022-11-28T03:01:17.227Z,9.20
2022-11-28T03:04:01.410Z,8.83
2022-11-28T03:07:09.184Z,9.90
2022-11-28T03:09:47.947Z,9.00
2022-11-28T03:12:29.315Z,9.03
2022-11-28T03:15:00.480Z,9.33
2022-11-28T03:17:42.199Z,7.57
2022-11-28T03:20:26.557Z,7.57
2022-11-28T03:23:21.563Z,7.67
2022-11-28T03:26:06.872Z,9.57
2022-11-28T03:28:43.584Z,8.97
2022-11-28T03:31:39.111Z,9.63
2022-11-28T03:34:09.516Z,9.27
2022-11-28T03:36:44.744Z,9.03
2022-11-28T03:39:19.373Z,8.97
2022-11-28T03:41:53.069Z,8.40
2022-11-28T03:44:27.710Z,8.63
2022-11-28T03:46:57.949Z,7.50
2022-11-28T03:49:35.422Z,8.47
2022-11-28T03:52:06.114Z,8.00
2022-11-28T03:54:40.463Z,9.03
2022-11-28T03:57:58.573Z,9.47
2022-11-28T04:00:26.169Z,9.87
2022-11-28T04:03:09.163Z,10.03
2022-11-28T04:05:48.317Z,8.73
2022-11-28T04:08:41.132Z,8.97
2022-11-28T04:11:14.974Z,10.07
2022-11-28T04:13:49.544Z,8.77
2022-11-28T04:16:39.259Z,7.63
2022-11-28T04:19:11.263Z,8.07
2022-11-28T04:21:51.870Z,7.57
2022-11-28T04:24:23.949Z,7.20
2022-11-28T04:27:23.436Z,7.10
2022-11-28T04:29:54.174Z,7.47
2022-11-28T04:32:24.965Z,5.67
2022-11-28T04:34:57.644Z,7.40
2022-11-28T04:37:27.518Z,5.27
2022-11-28T04:39:56.327Z,6.23
2022-11-28T04:42:52.434Z,6.97
2022-11-28T04:45:29.094Z,7.77
2022-11-28T04:47:56.226Z,7.60
2022-11-28T04:50:25.344Z,9.63
2022-11-28T04:53:00.394Z,8.50
2022-11-28T04:55:46.469Z,8.83
2022-11-28T04:58:24.772Z,10.10
2022-11-28T05:00:54.511Z,9.70
2022-11-28T05:03:22.286Z,7.33
2022-11-28T05:05:51.730Z,8.33
2022-11-28T05:08:19.399Z,5.83
2022-11-28T05:10:46.643Z,6.40
2022-11-28T05:13:13.763Z,6.93
2022-11-28T05:15:40.608Z,8.03
2022-11-28T05:18:07.803Z,7.10
2022-11-28T05:20:35.412Z,8.73
2022-11-28T05:23:03.180Z,9.13
2022-11-28T05:25:31.134Z,8.87
2022-11-28T05:27:58.064Z,7.87
2022-11-28T05:30:25.950Z,13.10
2022-11-28T05:32:52.850Z,10.37
2022-11-28T05:35:19.686Z,9.13
2022-11-28T05:37:46.573Z,8.83
2022-11-28T05:40:13.557Z,9.33
2022-11-28T05:42:40.436Z,9.83
2022-11-28T05:45:07.775Z,9.33
2022-11-28T05:47:34.942Z,10.60
2022-11-28T05:50:01.983Z,9.23
2022-11-28T05:52:32.501Z,8.47
2022-11-28T05:55:00.374Z,8.80
2022-11-28T05:57:29.952Z,11.37
2022-11-28T05:59:57.552Z,8.37
2022-11-28T06:02:24.630Z,8.23
2022-11-28T06:04:51.530Z,7.43
2022-11-28T06:07:19.839Z,9.40
2022-11-28T06:09:46.853Z,7.30
2022-11-28T06:12:13.918Z,7.57
2022-11-28T06:14:40.871Z,7.07
2022-11-28T06:17:07.792Z,7.37
2022-11-28T06:19:34.738Z,7.93
2022-11-28T06:22:01.579Z,7.80
2022-11-28T06:24:28.442Z,8.50
2022-11-28T06:26:55.373Z,7.93
2022-11-28T06:29:22.729Z,8.20
2022-11-28T06:31:49.698Z,9.17
2022-11-28T06:34:16.596Z,6.83
2022-11-28T06:36:44.688Z,6.13
2022-11-28T06:39:15.824Z,6.27
2022-11-28T06:41:44.064Z,6.33
2022-11-28T06:44:14.651Z,8.33
2022-11-28T06:46:42.191Z,7.70
2022-11-28T06:49:13.721Z,7.47
2022-11-28T06:51:41.577Z,7.47
2022-11-28T06:54:09.100Z,7.00
2022-11-28T06:56:36.035Z,6.83
2022-11-28T06:59:03.508Z,6.23
2022-11-28T07:01:32.423Z,8.53
2022-11-28T07:03:59.253Z,16.90
2022-11-28T07:06:27.201Z,10.20
2022-11-28T07:08:58.630Z,7.13
2022-11-28T07:11:30.270Z,7.47
2022-11-28T07:13:58.361Z,7.07
2022-11-28T07:16:29.317Z,7.90
2022-11-28T07:18:57.437Z,6.80
2022-11-28T07:21:24.805Z,12.57
2022-11-28T07:23:51.849Z,11.43
2022-11-28T07:26:20.247Z,16.20
2022-11-28T07:28:48.182Z,13.20
2022-11-28T07:31:19.369Z,8.13
2022-11-28T07:33:48.610Z,6.20
2022-11-28T07:36:24.762Z,6.40
2022-11-28T07:38:53.842Z,6.60
2022-11-28T07:41:26.287Z,6.43
2022-11-28T07:43:56.802Z,6.80
2022-11-28T07:46:24.718Z,7.17
2022-11-28T07:48:52.310Z,8.70
2022-11-28T07:51:22.646Z,6.47
2022-11-28T07:53:49.841Z,8.77
2022-11-28T07:56:20.565Z,6.87
2022-11-28T07:58:48.901Z,5.40
2022-11-28T08:01:19.242Z,5.17
2022-11-28T08:03:47.224Z,5.83
2022-11-28T08:06:16.671Z,6.20
2022-11-28T08:08:44.253Z,5.70
2022-11-28T08:11:11.391Z,6.27
2022-11-28T08:13:38.948Z,7.00
2022-11-28T08:16:17.907Z,6.30
2022-11-28T08:18:45.142Z,5.37
2022-11-28T08:21:18.047Z,4.63
2022-11-28T08:23:45.575Z,7.20
2022-11-28T08:26:14.857Z,5.67
2022-11-28T08:28:42.501Z,5.10
2022-11-28T08:31:11.489Z,6.33
2022-11-28T08:33:38.850Z,8.27
2022-11-28T08:36:07.124Z,6.17
2022-11-28T08:38:34.495Z,8.67
2022-11-28T08:41:03.392Z,7.57
2022-11-28T08:43:30.300Z,6.80
2022-11-28T08:45:57.609Z,6.63
2022-11-28T08:48:24.515Z,6.83
2022-11-28T08:50:51.755Z,8.17
2022-11-28T08:53:18.807Z,7.23
2022-11-28T08:55:45.904Z,7.87
2022-11-28T08:58:13.371Z,5.63
2022-11-28T09:00:42.686Z,6.00
2022-11-28T09:03:15.262Z,6.03
2022-11-28T09:05:46.624Z,5.47
2022-11-28T09:08:14.748Z,6.53
2022-11-28T09:10:44.076Z,5.50
2022-11-28T09:13:12.100Z,6.00
2022-11-28T09:15:44.329Z,5.60
2022-11-28T09:18:13.048Z,4.27
2022-11-28T09:20:40.789Z,6.10
2022-11-28T09:23:08.872Z,4.30
2022-11-28T09:25:38.191Z,5.57
2022-11-28T09:28:06.893Z,5.40
2022-11-28T09:30:34.543Z,5.20
2022-11-28T09:33:01.657Z,4.00
2022-11-28T09:35:28.720Z,5.20
2022-11-28T09:37:57.193Z,4.53
2022-11-28T09:40:38.864Z,5.10
2022-11-28T09:43:16.318Z,12.03
2022-11-28T09:45:45.938Z,7.00
2022-11-28T09:48:30.851Z,9.70
2022-11-28T09:51:05.199Z,5.47
2022-11-28T09:53:41.932Z,4.93
2022-11-28T09:56:14.325Z,6.90
2022-11-28T09:58:56.275Z,6.33
2022-11-28T10:01:27.125Z,7.07
2022-11-28T10:04:06.467Z,10.13
2022-11-28T10:07:08.501Z,14.73
2022-11-28T10:09:53.999Z,6.60
2022-11-28T10:12:42.319Z,7.70
2022-11-28T10:15:12.587Z,7.40
2022-11-28T10:18:01.085Z,7.60
2022-11-28T10:20:32.745Z,6.57
2022-11-28T10:23:04.778Z,7.00
2022-11-28T10:26:09.145Z,8.10
2022-11-28T10:28:39.304Z,7.00
2022-11-28T10:31:27.046Z,10.47
2022-11-28T10:34:14.996Z,7.17
2022-11-28T10:36:51.688Z,7.63
2022-11-28T10:39:18.725Z,7.13
2022-11-28T10:42:11.438Z,6.63
2022-11-28T10:44:55.637Z,6.27
2022-11-28T10:47:25.264Z,7.40
2022-11-28T10:50:02.378Z,5.90
2022-11-28T10:52:47.546Z,7.20
2022-11-28T10:55:25.296Z,6.83
2022-11-28T10:58:31.040Z,6.93
2022-11-28T11:00:58.865Z,6.60
2022-11-28T11:03:29.880Z,7.23
2022-11-28T11:05:58.433Z,5.70
2022-11-28T11:08:28.301Z,7.27
2022-11-28T11:11:24.297Z,8.70
2022-11-28T11:13:56.479Z,11.87
2022-11-28T11:16:23.786Z,11.87
2022-11-28T11:18:53.783Z,9.77
2022-11-28T11:21:22.122Z,12.37
2022-11-28T11:24:09.733Z,14.57
2022-11-28T11:26:41.275Z,9.10
2022-11-28T11:29:38.339Z,11.47
2022-11-28T11:32:16.588Z,24.50
2022-11-28T11:34:45.391Z,13.57
2022-11-28T11:37:38.697Z,13.13
2022-11-28T11:40:27.122Z,9.63
2022-11-28T11:42:57.498Z,8.50
2022-11-28T11:45:35.503Z,8.40
2022-11-28T11:48:03.902Z,6.83
2022-11-28T11:50:31.953Z,8.73
2022-11-28T11:53:14.022Z,8.13
2022-11-28T11:55:48.879Z,7.50
2022-11-28T11:58:41.683Z,6.97
2022-11-28T12:01:10.860Z,7.60
2022-11-28T12:03:42.257Z,7.37
2022-11-28T12:06:24.533Z,8.63
2022-11-28T12:09:16.822Z,7.97
2022-11-28T12:11:50.816Z,7.63
2022-11-28T12:14:31.206Z,9.33
2022-11-28T12:17:40.460Z,7.23
2022-11-28T12:20:25.422Z,9.67
2022-11-28T12:23:07.016Z,12.37
2022-11-28T12:25:47.536Z,11.00
2022-11-28T12:28:26.788Z,12.97
2022-11-28T12:31:22.606Z,8.70
2022-11-28T12:33:59.272Z,8.77
2022-11-28T12:36:26.367Z,8.17
2022-11-28T12:39:21.069Z,9.33
2022-11-28T12:42:09.242Z,11.50
2022-11-28T12:44:50.842Z,8.63
2022-11-28T12:47:42.034Z,7.40
2022-11-28T12:50:08.917Z,8.90
2022-11-28T12:53:07.647Z,6.77
2022-11-28T12:55:46.295Z,7.83
2022-11-28T12:58:29.836Z,5.97
2022-11-28T13:01:28.352Z,7.50
2022-11-28T13:04:16.728Z,6.53
2022-11-28T13:06:52.826Z,8.00
2022-11-28T13:09:25.557Z,6.73
2022-11-28T13:12:16.606Z,7.23
2022-11-28T13:15:03.085Z,10.27
2022-11-28T13:17:52.358Z,8.17
2022-11-28T13:20:47.058Z,12.47
2022-11-28T13:23:22.726Z,10.33
2022-11-28T13:25:55.814Z,12.43
2022-11-28T13:28:38.408Z,9.30
2022-11-28T13:31:24.970Z,9.83
2022-11-28T13:33:55.145Z,8.50
2022-11-28T13:39:35.644Z,10.17
2022-11-28T13:45:19.686Z,11.93
2022-11-28T13:47:46.931Z,11.57
2022-11-28T13:50:23.003Z,8.00
2022-11-28T13:53:00.088Z,10.80
2022-11-28T13:56:05.093Z,10.73
2022-11-28T13:58:41.331Z,10.80
2022-11-28T14:01:11.198Z,10.73
2022-11-28T14:03:57.655Z,8.47
2022-11-28T14:06:26.952Z,9.00
2022-11-28T14:09:16.727Z,10.47
2022-11-28T14:12:09.859Z,8.43
2022-11-28T14:15:01.058Z,8.57
2022-11-28T14:18:18.893Z,9.03
2022-11-28T14:20:59.212Z,7.73
2022-11-28T14:23:34.339Z,8.73
2022-11-28T14:26:01.829Z,8.37
2022-11-28T14:28:37.785Z,9.23
2022-11-28T14:31:11.154Z,8.20
2022-11-28T14:33:42.381Z,8.87
2022-11-28T14:36:23.964Z,8.53
2022-11-28T14:39:04.426Z,6.33
2022-11-28T14:41:31.419Z,9.10
2022-11-28T14:44:46.212Z,9.43
2022-11-28T14:47:42.958Z,9.00
2022-11-28T14:50:10.508Z,7.87
2022-11-28T14:53:18.960Z,9.97
2022-11-28T14:55:45.834Z,10.40
2022-11-28T14:58:16.364Z,7.60
2022-11-28T15:00:57.939Z,9.10
2022-11-28T15:03:55.933Z,10.03
2022-11-28T15:06:33.735Z,9.17
2022-11-28T15:09:16.741Z,9.67
2022-11-28T15:11:58.747Z,11.93
2022-11-28T15:14:28.744Z,8.67
2022-11-28T15:17:10.421Z,9.00
2022-11-28T15:19:49.339Z,9.53
2022-11-28T15:22:39.816Z,9.67
2022-11-28T15:25:25.788Z,10.33
2022-11-28T15:27:55.339Z,13.03
2022-11-28T15:30:26.448Z,12.07
2022-11-28T15:32:59.707Z,15.53
2022-11-28T15:35:27.776Z,12.23
2022-11-28T15:37:57.929Z,10.60
2022-11-28T15:40:36.164Z,12.50
2022-11-28T15:43:09.569Z,13.97
2022-11-28T15:45:42.314Z,14.10
2022-11-28T15:48:26.277Z,10.27
2022-11-28T15:50:53.479Z,12.33
2022-11-28T15:53:21.149Z,10.30
2022-11-28T15:56:06.241Z,9.93
2022-11-28T15:58:34.268Z,11.43
2022-11-28T16:01:14.844Z,9.47
2022-11-28T16:04:03.797Z,11.33
2022-11-28T16:06:34.003Z,10.27
2022-11-28T16:09:17.573Z,12.80
2022-11-28T16:11:51.397Z,10.17
2022-11-28T16:14:27.280Z,11.87
2022-11-28T16:16:55.109Z,11.73
2022-11-28T16:19:36.028Z,11.17
2022-11-28T16:22:06.121Z,10.20
2022-11-28T16:24:47.836Z,13.90
2022-11-28T16:27:37.392Z,12.40
2022-11-28T16:30:36.989Z,13.60
2022-11-28T16:33:35.821Z,16.30
2022-11-28T16:36:28.712Z,13.37
2022-11-28T16:39:09.531Z,12.10
2022-11-28T16:41:37.500Z,12.23
2022-11-28T16:44:10.163Z,11.63
2022-11-28T16:46:40.482Z,16.10
2022-11-28T16:49:26.145Z,16.73
2022-11-28T16:52:20.891Z,14.00
2022-11-28T16:55:00.052Z,12.50
2022-11-28T16:57:45.968Z,14.60
2022-11-28T17:00:13.208Z,13.10
2022-11-28T17:02:40.021Z,17.17
2022-11-28T17:05:07.087Z,15.07
2022-11-28T17:07:33.960Z,14.50
2022-11-28T17:10:01.821Z,19.47
2022-11-28T17:12:37.122Z,18.47
2022-11-28T17:15:04.261Z,15.43
2022-11-28T17:17:31.785Z,19.20
2022-11-28T17:19:58.916Z,23.83
2022-11-28T17:22:40.536Z,20.87
2022-11-28T17:25:13.525Z,20.87
2022-11-28T17:27:40.432Z,22.43
2022-11-28T17:30:08.050Z,16.70
2022-11-28T17:32:34.841Z,16.47
2022-11-28T17:35:04.016Z,16.70
2022-11-28T17:37:30.886Z,14.47
2022-11-28T17:40:16.777Z,14.53
2022-11-28T17:42:43.580Z,15.37
2022-11-28T17:45:15.432Z,15.37
2022-11-28T17:47:43.272Z,16.17
2022-11-28T17:50:11.331Z,15.83
2022-11-28T17:52:38.271Z,16.97
2022-11-28T17:55:07.138Z,15.40
2022-11-28T17:57:35.288Z,13.17
2022-11-28T18:00:06.631Z,13.13
2022-11-28T18:02:41.401Z,13.43
2022-11-28T18:05:09.771Z,12.77
2022-11-28T18:07:38.294Z,13.27
2022-11-28T18:10:05.778Z,11.80
2022-11-28T18:12:33.571Z,22.23
2022-11-28T18:15:00.985Z,20.43
2022-11-28T18:17:28.526Z,23.80
2022-11-28T18:19:57.811Z,21.30
2022-11-28T18:22:25.175Z,18.13
2022-11-28T18:24:52.612Z,18.07
2022-11-28T18:27:19.474Z,18.87
2022-11-28T18:29:46.618Z,15.50
2022-11-28T18:32:13.790Z,22.20
2022-11-28T18:34:40.671Z,18.50
2022-11-28T18:37:08.444Z,17.63
2022-11-28T18:39:35.373Z,18.80
2022-11-28T18:42:02.572Z,16.97
2022-11-28T18:44:29.367Z,23.07
2022-11-28T18:46:56.312Z,19.80
2022-11-28T18:49:23.280Z,14.83
2022-11-28T18:51:50.568Z,15.10
2022-11-28T18:54:21.273Z,16.23
2022-11-28T18:56:49.030Z,14.93
2022-11-28T18:59:17.444Z,14.10
2022-11-28T19:01:44.568Z,16.53
2022-11-28T19:04:12.778Z,16.73
2022-11-28T19:06:41.319Z,13.87
2022-11-28T19:09:11.732Z,12.90
2022-11-28T19:11:40.422Z,15.07
2022-11-28T19:14:08.225Z,16.43
2022-11-28T19:16:37.725Z,16.90
2022-11-28T19:19:06.245Z,14.87
2022-11-28T19:21:35.615Z,14.23
2022-11-28T19:24:03.480Z,17.07
2022-11-28T19:26:31.318Z,16.03
2022-11-28T19:29:02.169Z,18.07
2022-11-28T19:31:40.246Z,17.57
2022-11-28T19:34:16.398Z,16.63
2022-11-28T19:36:51.084Z,31.07
2022-11-28T19:39:22.363Z,30.03
2022-11-28T19:41:51.015Z,30.23
2022-11-28T19:44:20.884Z,24.70
2022-11-28T19:46:48.360Z,19.93
2022-11-28T19:49:21.426Z,22.83
2022-11-28T19:51:49.409Z,17.77
2022-11-28T19:54:19.751Z,15.73
2022-11-28T19:56:48.332Z,17.40
2022-11-28T19:59:15.335Z,14.53
2022-11-28T20:01:43.589Z,14.20
2022-11-28T20:04:11.136Z,13.57
2022-11-28T20:06:38.470Z,13.53
2022-11-28T20:09:08.824Z,13.53
2022-11-28T20:11:39.908Z,11.73
2022-11-28T20:14:12.990Z,16.10
2022-11-28T20:16:41.935Z,14.43
2022-11-28T20:19:11.216Z,15.00
2022-11-28T20:21:38.859Z,16.47
2022-11-28T20:24:07.509Z,14.60
2022-11-28T20:26:38.681Z,15.13
2022-11-28T20:29:06.730Z,16.90
2022-11-28T20:31:41.946Z,17.40
2022-11-28T20:34:09.009Z,16.40
2022-11-28T20:36:36.384Z,17.33
2022-11-28T20:39:04.563Z,17.53
2022-11-28T20:41:32.103Z,13.80
2022-11-28T20:44:00.693Z,13.30
2022-11-28T20:46:33.626Z,15.60
2022-11-28T20:49:03.363Z,12.63
2022-11-28T20:51:32.689Z,13.40
2022-11-28T20:54:00.419Z,13.97
2022-11-28T20:56:30.031Z,21.40
2022-11-28T20:59:01.126Z,15.97
2022-11-28T21:01:30.904Z,16.33
2022-11-28T21:03:58.432Z,18.63
2022-11-28T21:06:25.863Z,17.17
2022-11-28T21:08:52.827Z,15.83
2022-11-28T21:11:55.802Z,14.80
2022-11-28T21:14:11.929Z,17.83
2022-11-28T21:16:38.792Z,15.63
2022-11-28T21:19:08.940Z,17.87
2022-11-28T21:21:38.779Z,15.43
2022-11-28T21:24:08.571Z,15.73
2022-11-28T21:26:41.037Z,16.03
2022-11-28T21:29:11.900Z,19.47
2022-11-28T21:31:43.423Z,15.07
2022-11-28T21:34:16.633Z,16.27
2022-11-28T21:36:44.459Z,17.77
2022-11-28T21:39:17.033Z,13.87
2022-11-28T21:41:44.509Z,14.57
2022-11-28T21:44:11.425Z,14.70
2022-11-28T21:46:38.372Z,13.13
2022-11-28T21:49:06.382Z,15.27
2022-11-28T21:51:37.924Z,11.97
2022-11-28T21:54:04.881Z,13.30
2022-11-28T21:56:31.816Z,13.30
2022-11-28T21:58:58.627Z,14.30
2022-11-28T22:01:25.520Z,10.77
2022-11-28T22:03:54.431Z,11.20
2022-11-28T22:06:25.677Z,11.17
2022-11-28T22:08:54.703Z,9.90
2022-11-28T22:11:24.089Z,10.87
2022-11-28T22:13:53.643Z,9.93
2022-11-28T22:16:28.209Z,9.07
2022-11-28T22:18:57.746Z,9.03
2022-11-28T22:24:13.641Z,9.30
2022-11-28T22:26:41.458Z,11.40
2022-11-28T22:29:08.873Z,13.77
2022-11-28T22:31:36.303Z,15.80
2022-11-28T22:34:03.646Z,16.40
2022-11-28T22:36:32.091Z,11.27
2022-11-28T22:38:59.473Z,12.07
2022-11-28T22:41:29.215Z,12.03
2022-11-28T22:44:00.576Z,12.03
2022-11-28T22:46:28.630Z,14.70
2022-11-28T22:48:56.115Z,17.87
2022-11-28T22:51:25.283Z,13.57
2022-11-28T22:53:57.003Z,19.73
2022-11-28T22:56:26.748Z,13.20
2022-11-28T22:58:55.956Z,15.37
2022-11-28T23:01:27.398Z,11.93
2022-11-28T23:03:56.016Z,11.10
2022-11-28T23:06:27.581Z,10.03
2022-11-28T23:08:55.954Z,11.47
2022-11-28T23:11:27.125Z,12.43
2022-11-28T23:13:54.368Z,8.53
2022-11-28T23:16:27.572Z,10.47
2022-11-28T23:18:57.338Z,9.77
2022-11-28T23:21:26.363Z,7.40
2022-11-28T23:23:53.630Z,15.33
2022-11-28T23:26:26.233Z,15.17
2022-11-28T23:28:53.925Z,11.67
2022-11-28T23:31:24.473Z,13.30
2022-11-28T23:33:52.270Z,11.33
2022-11-28T23:36:30.904Z,12.00
2022-11-28T23:39:02.041Z,15.50
2022-11-28T23:41:30.126Z,12.30
2022-11-28T23:43:57.641Z,12.83
2022-11-28T23:46:25.802Z,10.93
2022-11-28T23:48:53.243Z,14.67
2022-11-28T23:51:23.557Z,11.63
2022-11-28T23:53:51.319Z,13.60
2022-11-28T23:56:21.030Z,12.37
2022-11-28T23:58:48.537Z,13.47
